Time;durP1;ratioP1;P1;durP2;ratioP2;P2;SDS_P1;SDS_P2;PMS_P1;PMS_P2;Temp;Humidity;BMP_temperature;BMP_pressure;BME280_temperature;BME280_humidity;BME280_pressure;Samples;Min_cycle;Max_cycle;Signal;HPM_P1;HPM_P2
2022/05/19 00:01:01;;;;;;;21.75;9.55;;;;;;;9.78;67.69;100944.16;1688146;85;20996;-51
2022/05/19 00:03:13;;;;;;;21.12;10.13;;;;;;;9.76;67.61;100942.12;1685698;84;21027;-52
2022/05/19 00:05:43;;;;;;;22.35;9.60;;;;;;;9.74;67.64;100944.14;1688180;85;21012;-50
2022/05/19 00:08:12;;;;;;;19.85;8.65;;;;;;;9.73;67.67;100945.17;1688278;85;21051;-52
2022/05/19 00:10:43;;;;;;;18.55;8.90;;;;;;;9.74;67.61;100939.19;1688127;85;21412;-52
2022/05/19 00:13:12;;;;;;;21.50;8.70;;;;;;;9.75;67.66;100938.16;1688361;85;21367;-51
2022/05/19 00:15:41;;;;;;;21.75;8.45;;;;;;;9.74;67.69;100940.04;1688347;85;20992;-52
2022/05/19 00:18:10;;;;;;;19.12;8.93;;;;;;;9.72;67.62;100940.73;1688140;85;21573;-51
2022/05/19 00:20:39;;;;;;;20.48;8.25;;;;;;;9.72;67.65;100934.41;1688180;85;20988;-52
2022/05/19 00:23:07;;;;;;;16.97;7.80;;;;;;;9.73;67.49;100930.12;1688243;85;20968;-52
2022/05/19 00:25:36;;;;;;;21.33;8.88;;;;;;;9.72;67.48;100934.41;1688246;85;21031;-51
2022/05/19 00:28:05;;;;;;;21.55;8.23;;;;;;;9.71;67.43;100937.66;1688263;85;21360;-50
2022/05/19 00:30:34;;;;;;;14.45;7.00;;;;;;;9.71;67.43;100938.17;1688376;85;21027;-52
2022/05/19 00:33:04;;;;;;;15.55;7.30;;;;;;;9.67;67.41;100940.42;1688192;85;21035;-51
2022/05/19 00:35:34;;;;;;;16.15;7.83;;;;;;;9.64;67.41;100938.55;1688177;85;21039;-51
2022/05/19 00:38:02;;;;;;;13.70;6.20;;;;;;;9.61;67.49;100953.45;1688202;85;21007;-51
2022/05/19 00:40:31;;;;;;;15.53;7.15;;;;;;;9.59;67.55;100950.03;1688366;85;20980;-52
2022/05/19 00:42:59;;;;;;;14.38;6.37;;;;;;;9.60;67.57;100950.89;1688170;85;21052;-51
2022/05/19 00:45:40;;;;;;;12.43;6.78;;;;;;;9.59;67.64;100950.03;1688243;85;21004;-52
2022/05/19 00:48:24;;;;;;;17.37;7.22;;;;;;;9.59;67.59;100951.41;1688165;85;20992;-51
2022/05/19 00:51:01;;;;;;;12.98;6.15;;;;;;;9.59;67.61;100948.67;1688155;85;21032;-52
2022/05/19 00:53:43;;;;;;;14.83;6.53;;;;;;;9.56;67.55;100949.54;1688360;85;21015;-52
2022/05/19 00:56:17;;;;;;;11.83;5.87;;;;;;;9.53;67.54;100952.11;1688230;85;21400;-51
2022/05/19 00:58:54;;;;;;;12.03;6.10;;;;;;;9.51;67.55;100952.81;1688067;85;20987;-51
2022/05/19 01:01:22;;;;;;;12.75;6.10;;;;;;;9.49;67.51;100955.72;1688279;85;21020;-50
2022/05/19 01:04:00;;;;;;;11.15;5.67;;;;;;;9.45;67.52;100955.73;1688174;85;21016;-53
2022/05/19 01:06:28;;;;;;;16.25;6.12;;;;;;;9.42;67.57;100966.18;1688082;84;20993;-51
2022/05/19 01:09:09;;;;;;;13.03;5.83;;;;;;;9.36;67.61;100956.80;1688230;85;21008;-52
2022/05/19 01:11:38;;;;;;;11.70;5.58;;;;;;;9.34;67.65;100968.94;1688326;85;21003;-52
2022/05/19 01:14:07;;;;;;;14.85;6.03;;;;;;;9.32;67.76;100961.42;1688255;85;21008;-51
2022/05/19 01:16:36;;;;;;;12.20;6.00;;;;;;;9.32;67.86;100962.80;1688237;85;21427;-52
2022/05/19 01:19:09;;;;;;;13.93;6.53;;;;;;;9.28;67.90;100954.09;1667269;85;21019;-51
2022/05/19 01:21:38;;;;;;;13.20;6.53;;;;;;;9.28;67.97;100957.34;1688137;85;20980;-52
2022/05/19 01:24:16;;;;;;;11.93;6.75;;;;;;;9.26;67.96;100958.03;1688364;85;21400;-51
2022/05/19 01:26:52;;;;;;;12.75;6.58;;;;;;;9.24;67.99;100959.57;1688158;85;21016;-51
2022/05/19 01:29:24;;;;;;;17.42;7.12;;;;;;;9.24;68.00;100962.30;1688202;85;21024;-52
2022/05/19 01:31:59;;;;;;;13.15;6.40;;;;;;;9.22;68.00;100964.36;1688164;85;21451;-52
2022/05/19 01:34:32;;;;;;;18.20;7.10;;;;;;;9.19;68.02;100962.83;1688185;85;21055;-51
2022/05/19 01:37:01;;;;;;;17.40;6.42;;;;;;;9.16;67.98;100960.96;1688176;85;21008;-51
2022/05/19 01:39:31;;;;;;;17.07;6.45;;;;;;;9.14;67.97;100962.50;1686726;85;21505;-52
2022/05/19 01:42:30;;;;;;;16.00;6.50;;;;;;;9.14;67.89;100954.81;1688115;85;21404;-51
2022/05/19 01:45:20;;;;;;;11.12;6.05;;;;;;;9.11;67.94;100958.75;1688328;85;21015;-51
2022/05/19 01:48:18;;;;;;;13.62;6.85;;;;;;;9.12;68.00;100962.34;1688198;83;20991;-51
2022/05/19 01:50:58;;;;;;;15.55;7.83;;;;;;;9.09;68.06;100962.14;1688231;83;21498;-52
2022/05/19 01:53:34;;;;;;;14.43;7.00;;;;;;;9.09;68.12;100958.55;1688280;85;21023;-52
2022/05/19 01:56:26;;;;;;;14.87;6.70;;;;;;;9.07;68.06;100961.46;1688241;85;21416;-51
2022/05/19 01:59:22;;;;;;;14.63;6.92;;;;;;;9.06;68.05;100963.00;1688126;85;21023;-51
2022/05/19 02:02:23;;;;;;;12.47;6.80;;;;;;;9.04;68.06;100965.91;1688296;85;21444;-52
2022/05/19 02:05:00;;;;;;;14.10;6.70;;;;;;;9.00;68.10;100971.90;1645519;84;21043;-50
2022/05/19 02:07:28;;;;;;;14.43;6.65;;;;;;;8.96;68.25;100978.74;1644027;86;21449;-52
2022/05/19 02:10:04;;;;;;;16.25;6.53;;;;;;;8.95;68.26;100977.89;1623264;88;21061;-51
2022/05/19 02:12:34;;;;;;;16.15;6.92;;;;;;;8.94;68.14;100979.42;1651967;87;20982;-52
2022/05/19 02:15:08;;;;;;;15.95;7.03;;;;;;;8.94;68.14;100979.42;1651977;87;20977;-50
2022/05/19 02:17:37;;;;;;;13.25;6.40;;;;;;;8.95;68.38;100983.35;1651868;87;21390;-51
2022/05/19 02:20:09;;;;;;;16.55;7.12;;;;;;;8.95;68.33;100984.72;1651879;86;20966;-51
2022/05/19 02:22:42;;;;;;;12.53;6.83;;;;;;;8.93;68.35;100984.04;1651834;87;21033;-53
2022/05/19 02:25:30;;;;;;;13.08;7.20;;;;;;;8.91;68.38;100988.83;1652082;87;20974;-51
2022/05/19 02:28:31;;;;;;;16.97;7.87;;;;;;;8.90;68.39;100989.85;1652019;86;20993;-51
2022/05/19 02:31:01;;;;;;;16.73;7.60;;;;;;;8.85;68.48;100991.73;1652002;87;20997;-51
2022/05/19 02:33:31;;;;;;;17.52;7.35;;;;;;;8.83;68.53;100991.56;1651968;87;20984;-51
2022/05/19 02:36:00;;;;;;;11.57;5.62;;;;;;;8.82;68.49;100989.34;1651865;87;21381;-52
2022/05/19 02:38:28;;;;;;;15.25;6.90;;;;;;;8.83;68.55;100996.52;1651843;87;20999;-52
2022/05/19 02:40:57;;;;;;;19.02;7.58;;;;;;;8.86;68.59;101004.38;1652106;87;20989;-54
2022/05/19 02:43:26;;;;;;;17.92;8.25;;;;;;;8.86;68.68;101004.38;1649847;86;21032;-51
2022/05/19 02:45:55;;;;;;;17.07;8.00;;;;;;;8.85;68.68;101004.03;1648150;87;21525;-51
2022/05/19 02:48:23;;;;;;;18.67;8.50;;;;;;;8.86;68.69;101002.16;1648136;87;21016;-51
2022/05/19 02:50:53;;;;;;;17.50;8.45;;;;;;;8.87;68.67;101001.98;1648140;87;20997;-51
2022/05/19 02:53:21;;;;;;;20.57;8.20;;;;;;;8.86;68.68;101007.62;1648033;87;21001;-51
2022/05/19 02:55:51;;;;;;;17.52;8.88;;;;;;;8.84;68.73;101000.10;1648221;87;20978;-51
2022/05/19 02:58:20;;;;;;;18.65;8.80;;;;;;;8.82;68.74;101007.11;1648093;87;20986;-52
2022/05/19 03:00:48;;;;;;;20.60;8.60;;;;;;;8.83;68.75;101007.96;1648191;87;21509;-51
2022/05/19 03:03:17;;;;;;;17.25;7.08;;;;;;;8.81;68.80;101008.13;1648101;87;21012;-51
2022/05/19 03:05:46;;;;;;;16.00;7.83;;;;;;;8.83;68.80;101010.70;1648068;87;21049;-51
2022/05/19 03:08:16;;;;;;;22.60;8.58;;;;;;;8.85;68.83;101008.64;1648086;86;21089;-52
2022/05/19 03:10:45;;;;;;;21.10;8.65;;;;;;;8.86;68.89;101008.47;1648236;87;20990;-52
2022/05/19 03:13:20;;;;;;;16.82;8.98;;;;;;;8.87;68.82;101012.05;1648058;87;20954;-50
2022/05/19 03:15:49;;;;;;;21.20;7.87;;;;;;;8.87;68.75;101014.79;1648119;86;20993;-51
2022/05/19 03:18:17;;;;;;;18.12;8.08;;;;;;;8.88;68.74;101011.03;1648056;87;21120;-51
2022/05/19 03:20:46;;;;;;;19.25;8.73;;;;;;;8.89;68.68;101013.59;1648031;86;21144;-52
2022/05/19 03:23:15;;;;;;;17.80;8.43;;;;;;;8.91;68.66;101016.16;1648235;87;21080;-51
2022/05/19 03:25:44;;;;;;;18.70;8.65;;;;;;;8.91;68.61;101022.98;1648195;87;20997;-51
2022/05/19 03:28:14;;;;;;;18.45;7.83;;;;;;;8.93;68.51;101017.35;1648207;87;20989;-51
2022/05/19 03:30:43;;;;;;;19.25;7.53;;;;;;;8.94;68.52;101019.91;1648179;87;20973;-51
2022/05/19 03:33:13;;;;;;;21.93;8.40;;;;;;;8.97;68.45;101011.88;1648275;86;20954;-52
2022/05/19 03:35:42;;;;;;;18.75;8.98;;;;;;;9.01;68.33;101011.88;1648283;87;20969;-52
2022/05/19 03:38:11;;;;;;;21.70;7.75;;;;;;;9.04;68.25;101017.84;1648185;87;21429;-51
2022/05/19 03:40:39;;;;;;;17.87;9.23;;;;;;;9.06;68.26;101019.90;1648133;87;20962;-52
2022/05/19 03:43:08;;;;;;;19.77;8.35;;;;;;;9.09;68.20;101027.75;1648090;87;21382;-50
2022/05/19 03:45:38;;;;;;;17.45;8.68;;;;;;;9.11;68.15;101028.47;1648322;87;21013;-52
2022/05/19 03:48:07;;;;;;;21.00;8.23;;;;;;;9.13;68.01;101029.66;1648263;87;21393;-51
2022/05/19 03:50:36;;;;;;;16.80;7.87;;;;;;;9.15;67.87;101033.92;1648251;87;20981;-54
2022/05/19 03:53:05;;;;;;;20.88;8.25;;;;;;;9.19;67.83;101036.66;1648231;87;21131;-52
2022/05/19 03:55:36;;;;;;;16.82;7.72;;;;;;;9.25;67.73;101035.62;1648175;87;21381;-52
2022/05/19 03:58:05;;;;;;;16.45;7.83;;;;;;;9.29;67.56;101035.10;1648248;87;21068;-52
2022/05/19 04:00:34;;;;;;;14.63;6.67;;;;;;;9.34;67.36;101040.91;1648171;87;20993;-52
2022/05/19 04:03:02;;;;;;;22.48;7.95;;;;;;;9.40;67.24;101042.08;1648370;87;20978;-53
2022/05/19 04:05:31;;;;;;;17.48;7.00;;;;;;;9.46;67.05;101045.48;1648133;87;21485;-50
2022/05/19 04:08:00;;;;;;;13.75;7.05;;;;;;;9.52;66.88;101046.16;1648156;87;21037;-52
2022/05/19 04:10:31;;;;;;;20.82;8.15;;;;;;;9.55;66.78;101043.07;1648298;86;21069;-52
2022/05/19 04:13:00;;;;;;;16.70;7.58;;;;;;;9.60;66.54;101043.40;1648262;87;20985;-51
2022/05/19 04:15:30;;;;;;;16.90;7.42;;;;;;;9.66;66.42;101044.58;1648353;86;21011;-52
2022/05/19 04:17:58;;;;;;;16.93;6.80;;;;;;;9.72;66.10;101047.46;1648148;87;21084;-54
2022/05/19 04:20:30;;;;;;;17.50;6.72;;;;;;;9.78;65.81;101048.16;1648147;87;20969;-51
2022/05/19 04:22:58;;;;;;;15.60;7.30;;;;;;;9.84;65.70;101050.18;1648114;87;21116;-51
2022/05/19 04:25:27;;;;;;;12.75;5.55;;;;;;;9.90;65.62;101048.62;1648258;87;21029;-54
2022/05/19 04:27:58;;;;;;;14.85;6.35;;;;;;;9.96;65.26;101045.69;1591015;89;21004;-50
2022/05/19 04:30:26;;;;;;;13.58;6.50;;;;;;;10.00;65.15;101048.41;1590936;90;21046;-50
2022/05/19 04:32:58;;;;;;;14.18;6.35;;;;;;;10.06;64.96;101045.81;1590913;90;21036;-52
2022/05/19 04:35:26;;;;;;;10.43;6.05;;;;;;;10.10;64.83;101049.89;1590890;90;21520;-53
2022/05/19 04:38:00;;;;;;;12.05;5.72;;;;;;;10.16;64.60;101053.80;1590644;90;21456;-51
2022/05/19 04:40:28;;;;;;;13.50;5.65;;;;;;;10.21;64.48;101058.26;1571099;90;21049;-50
2022/05/19 04:42:57;;;;;;;14.33;5.70;;;;;;;10.29;64.32;101055.98;1590771;90;21090;-50
2022/05/19 04:45:25;;;;;;;13.22;5.60;;;;;;;10.37;64.09;101048.58;1602993;87;20994;-51
2022/05/19 04:47:55;;;;;;;10.00;5.42;;;;;;;10.45;63.89;101054.03;1648085;87;20969;-51
2022/05/19 04:50:23;;;;;;;13.60;5.35;;;;;;;10.56;63.64;101056.02;1648095;86;21016;-52
2022/05/19 04:52:55;;;;;;;14.93;5.72;;;;;;;10.70;63.35;101054.72;1648088;87;21402;-52
2022/05/19 04:55:23;;;;;;;12.58;5.50;;;;;;;10.93;63.24;101053.34;1622303;87;21017;-50
2022/05/19 04:57:52;;;;;;;13.78;5.62;;;;;;;11.23;62.29;101058.41;1648200;86;21001;-50
2022/05/19 05:00:21;;;;;;;16.60;5.50;;;;;;;11.54;61.08;101054.16;1648140;87;21442;-53
2022/05/19 05:02:49;;;;;;;11.22;5.28;;;;;;;11.80;60.12;101057.02;1648087;87;21415;-53
2022/05/19 05:05:21;;;;;;;13.60;5.50;;;;;;;12.05;59.70;101055.67;1622174;87;21021;-53
2022/05/19 05:07:52;;;;;;;13.68;5.67;;;;;;;12.32;58.89;101064.58;1648102;87;20978;-52
2022/05/19 05:10:20;;;;;;;15.65;5.95;;;;;;;12.62;58.11;101060.40;1648141;87;21398;-52
2022/05/19 05:12:49;;;;;;;12.95;6.05;;;;;;;12.87;57.27;101056.21;1648021;87;20974;-52
2022/05/19 05:15:18;;;;;;;14.63;6.12;;;;;;;13.14;56.51;101061.98;1648227;87;20969;-51
2022/05/19 05:17:47;;;;;;;12.58;5.53;;;;;;;13.39;55.67;101055.03;1648130;87;20989;-51
2022/05/19 05:20:16;;;;;;;12.03;5.03;;;;;;;13.61;54.58;101062.18;1648187;87;21026;-51
2022/05/19 05:22:45;;;;;;;15.60;5.75;;;;;;;13.87;54.30;101061.53;1648056;86;20982;-51
2022/05/19 05:25:15;;;;;;;12.00;5.72;;;;;;;14.17;53.78;101053.83;1648116;87;20973;-52
2022/05/19 05:27:44;;;;;;;14.33;5.60;;;;;;;14.41;52.70;101053.85;1648122;86;20982;-50
2022/05/19 05:30:13;;;;;;;14.33;5.58;;;;;;;14.62;52.01;101053.41;1648125;86;20993;-54
2022/05/19 05:32:42;;;;;;;13.08;5.78;;;;;;;14.80;51.43;101054.52;1648185;87;21017;-52
2022/05/19 05:35:10;;;;;;;14.63;5.90;;;;;;;15.00;51.06;101055.95;1648120;86;21409;-53
2022/05/19 05:37:39;;;;;;;15.08;6.10;;;;;;;15.23;50.78;101049.48;1648140;87;20973;-53
2022/05/19 05:40:10;;;;;;;16.82;6.75;;;;;;;15.49;50.07;101054.14;1648230;87;21580;-52
2022/05/19 05:42:39;;;;;;;18.70;6.95;;;;;;;15.76;49.42;101055.55;1648093;87;20946;-54
2022/05/19 05:45:10;;;;;;;21.42;9.50;;;;;;;15.95;48.73;101056.03;1648010;86;21033;-52
2022/05/19 05:47:38;;;;;;;11.03;5.92;;;;;;;16.06;47.18;101058.13;1648133;87;20994;-53
2022/05/19 05:50:09;;;;;;;10.48;5.25;;;;;;;16.12;47.55;101056.40;1648032;86;21008;-52
2022/05/19 05:52:38;;;;;;;12.70;5.47;;;;;;;16.31;47.20;101053.27;1648356;87;21382;-52
2022/05/19 05:55:07;;;;;;;10.72;4.83;;;;;;;16.48;45.82;101057.23;1648168;87;21040;-53
2022/05/19 05:57:38;;;;;;;10.98;5.17;;;;;;;16.55;46.01;101058.05;1648149;87;21001;-53
2022/05/19 06:00:08;;;;;;;34.48;13.78;;;;;;;16.75;46.15;101057.95;1648117;87;21053;-53
2022/05/19 06:02:39;;;;;;;17.48;7.35;;;;;;;17.01;45.61;101061.97;1648029;87;20961;-53
2022/05/19 06:05:11;;;;;;;10.78;5.80;;;;;;;17.22;45.20;101065.44;1648112;87;21405;-53
2022/05/19 06:07:40;;;;;;;12.43;5.95;;;;;;;17.46;44.97;101064.59;1648084;87;20969;-52
2022/05/19 06:10:10;;;;;;;14.05;6.17;;;;;;;17.62;43.58;101070.97;1648127;86;20965;-54
2022/05/19 06:12:39;;;;;;;15.15;6.55;;;;;;;17.67;44.11;101067.55;1648208;87;20990;-52
2022/05/19 06:15:10;;;;;;;12.93;5.42;;;;;;;17.81;44.18;101069.11;1648199;87;20950;-55
2022/05/19 06:17:40;;;;;;;10.90;5.58;;;;;;;18.01;43.48;101064.19;1648258;87;21402;-53
2022/05/19 06:20:14;;;;;;;13.72;5.00;;;;;;;18.29;43.13;101071.16;1648012;86;21421;-52
2022/05/19 06:22:48;;;;;;;15.30;5.55;;;;;;;18.61;42.08;101069.02;1648251;86;20993;-53
2022/05/19 06:25:16;;;;;;;14.20;5.47;;;;;;;18.79;42.03;101071.79;1647576;87;20994;-52
2022/05/19 06:27:45;;;;;;;10.55;5.37;;;;;;;18.79;40.22;101075.95;1648152;87;21001;-53
2022/05/19 06:30:14;;;;;;;10.10;4.65;;;;;;;18.71;40.34;101079.60;1648382;87;20942;-54
2022/05/19 06:32:43;;;;;;;8.73;4.75;;;;;;;18.74;40.79;101080.52;1648051;87;20997;-55
2022/05/19 06:35:14;;;;;;;13.30;4.97;;;;;;;19.02;40.94;101072.98;1622168;87;21421;-53
2022/05/19 06:37:43;;;;;;;9.78;5.17;;;;;;;19.30;40.29;101067.61;1648091;87;20973;-54
2022/05/19 06:40:13;;;;;;;15.15;5.78;;;;;;;19.56;40.13;101066.38;1648054;87;21009;-55
2022/05/19 06:42:45;;;;;;;18.82;5.95;;;;;;;19.83;39.95;101073.15;1648059;87;21409;-52
2022/05/19 06:45:17;;;;;;;11.97;5.17;;;;;;;20.07;38.96;101073.12;1647988;87;20993;-53
2022/05/19 06:47:48;;;;;;;12.45;4.60;;;;;;;20.18;38.25;101065.34;1648106;86;21030;-52
2022/05/19 06:50:17;;;;;;;13.68;5.42;;;;;;;20.17;38.41;101067.82;1648137;87;21051;-56
2022/05/19 06:53:01;;;;;;;16.90;5.45;;;;;;;20.27;38.08;101066.64;1648015;86;20974;-55
2022/05/19 06:55:28;;;;;;;9.85;4.72;;;;;;;20.49;38.34;101066.31;1648036;86;21045;-54
2022/05/19 06:57:58;;;;;;;11.83;4.12;;;;;;;20.65;37.23;101066.63;1648038;86;21026;-53
2022/05/19 07:00:28;;;;;;;8.33;3.70;;;;;;;20.64;36.32;101072.73;1648037;86;21013;-53
2022/05/19 07:02:59;;;;;;;8.33;3.72;;;;;;;20.67;35.95;101063.88;1648047;86;21107;-53
2022/05/19 07:05:32;;;;;;;8.58;4.40;;;;;;;20.81;35.77;101063.92;1648010;87;21124;-52
2022/05/19 07:08:00;;;;;;;8.70;3.27;;;;;;;20.94;35.44;101061.92;1648174;87;21417;-52
2022/05/19 07:10:29;;;;;;;9.28;3.92;;;;;;;20.97;35.12;101060.02;1648057;87;20985;-54
2022/05/19 07:12:59;;;;;;;8.10;3.52;;;;;;;21.08;34.82;101057.17;1648106;87;20977;-51
2022/05/19 07:15:28;;;;;;;9.80;3.62;;;;;;;21.24;34.61;101057.47;1648051;87;21003;-53
2022/05/19 07:17:56;;;;;;;8.68;3.75;;;;;;;21.34;33.61;101059.04;1648009;87;20978;-54
2022/05/19 07:23:16;;;;;;;9.33;3.33;;;;;;;21.47;33.53;101063.76;1648267;87;20961;-54
2022/05/19 07:25:44;;;;;;;5.60;3.27;;;;;;;21.41;33.13;101059.72;1648091;87;21405;-54
2022/05/19 07:28:14;;;;;;;6.80;3.62;;;;;;;21.37;33.14;101064.95;1648043;87;20998;-54
2022/05/19 07:30:44;;;;;;;8.30;3.67;;;;;;;21.30;33.99;101062.04;1647997;87;20953;-52
2022/05/19 07:33:15;;;;;;;8.50;3.20;;;;;;;21.43;33.87;101068.67;1648091;87;21444;-53
2022/05/19 07:35:46;;;;;;;7.80;3.33;;;;;;;21.56;33.96;101060.00;1648114;87;21428;-53
2022/05/19 07:38:17;;;;;;;9.73;3.50;;;;;;;21.68;33.24;101062.69;1648273;87;21037;-53
2022/05/19 07:40:47;;;;;;;6.75;2.85;;;;;;;21.73;33.60;101056.64;1647908;87;21029;-52
2022/05/19 07:46:05;;;;;;;5.70;2.22;;;;;;;22.14;32.53;101046.13;1648099;87;21129;-53
2022/05/19 07:48:33;;;;;;;4.70;2.50;;;;;;;22.18;32.28;101040.31;1648019;87;20981;-53
2022/05/19 07:51:04;;;;;;;9.00;2.30;;;;;;;22.26;31.31;101048.23;1647992;87;20993;-52
2022/05/19 07:53:37;;;;;;;11.18;3.52;;;;;;;22.22;30.99;101041.48;1648056;87;20978;-54
2022/05/19 07:56:18;;;;;;;6.87;2.55;;;;;;;22.26;30.83;101044.05;1638351;87;21022;-55
2022/05/19 07:58:48;;;;;;;5.60;2.22;;;;;;;22.39;30.89;101035.28;1651237;87;21054;-55
2022/05/19 08:01:17;;;;;;;6.22;2.12;;;;;;;22.48;30.94;101041.25;1690180;83;21055;-54
2022/05/19 08:03:46;;;;;;;4.22;2.10;;;;;;;22.46;30.78;101029.50;1708546;83;21000;-56
2022/05/19 08:06:15;;;;;;;4.55;2.08;;;;;;;22.45;31.18;101037.03;1636822;86;21407;-57
2022/05/19 08:08:46;;;;;;;3.90;1.60;;;;;;;22.57;30.91;101033.25;1671256;85;21011;-57
2022/05/19 08:11:15;;;;;;;3.58;1.62;;;;;;;22.74;29.98;101027.86;1691596;85;21035;-56
2022/05/19 08:16:30;;;;;;;6.17;1.80;;;;;;;22.81;29.68;101022.12;1691778;85;20992;-55
2022/05/19 08:18:58;;;;;;;5.30;1.32;;;;;;;22.76;29.55;101025.68;1600025;89;21044;-55
2022/05/19 08:21:29;;;;;;;4.05;1.92;;;;;;;22.73;29.80;101026.73;1600132;90;21045;-54
2022/05/19 08:23:57;;;;;;;5.55;2.10;;;;;;;22.80;30.31;101023.23;1600201;90;21448;-56
2022/05/19 08:26:26;;;;;;;4.12;1.85;;;;;;;22.92;29.52;101025.86;1598017;90;21023;-55
2022/05/19 08:28:55;;;;;;;8.23;2.47;;;;;;;22.98;29.58;101022.85;1594741;90;21039;-55
2022/05/19 08:31:25;;;;;;;4.25;2.30;;;;;;;23.02;29.76;101012.83;1599586;90;21461;-56
2022/05/19 08:33:54;;;;;;;5.25;2.10;;;;;;;23.01;29.57;101008.34;1599364;90;21047;-55
2022/05/19 08:36:26;;;;;;;5.00;2.20;;;;;;;23.05;29.92;101010.90;1619255;85;21032;-57
2022/05/19 08:38:55;;;;;;;7.80;2.90;;;;;;;23.16;29.62;101013.78;1691470;85;21003;-56
2022/05/19 08:41:34;;;;;;;6.30;2.40;;;;;;;23.19;28.99;101014.65;1691489;85;21463;-56
2022/05/19 08:44:38;;;;;;;10.38;3.70;;;;;;;23.03;29.19;101008.92;1684829;85;21045;-56
2022/05/19 08:47:07;;;;;;;7.92;3.05;;;;;;;22.92;29.08;101000.16;1655473;85;21432;-55
2022/05/19 08:50:06;;;;;;;5.00;2.98;;;;;;;22.84;29.93;101002.03;1687747;85;21047;-56
2022/05/19 08:52:41;;;;;;;18.98;3.52;;;;;;;22.94;30.11;100997.09;1687989;85;21000;-56
2022/05/19 08:55:11;;;;;;;17.17;3.30;;;;;;;23.02;29.54;101003.05;1687658;85;21008;-55
2022/05/19 08:58:05;;;;;;;5.40;3.25;;;;;;;23.05;29.55;100992.73;1681511;85;21040;-57
2022/05/19 09:00:43;;;;;;;7.10;2.87;;;;;;;23.15;29.60;100998.12;1703605;83;20988;-56
2022/05/19 09:03:46;;;;;;;4.25;2.42;;;;;;;23.28;29.09;101009.70;1695717;85;20987;-54
2022/05/19 09:06:23;;;;;;;3.50;2.17;;;;;;;23.26;28.44;101002.69;1695389;84;21040;-56
2022/05/19 09:09:27;;;;;;;8.30;2.60;;;;;;;22.95;28.84;101001.02;1694966;85;21015;-57
2022/05/19 09:12:10;;;;;;;4.60;2.17;;;;;;;22.74;28.96;100993.48;1695012;84;20996;-55
2022/05/19 09:14:39;;;;;;;7.75;2.90;;;;;;;22.40;28.87;100988.09;1694683;84;21003;-56
2022/05/19 09:17:10;;;;;;;7.80;2.90;;;;;;;22.07;29.38;100990.46;1694742;84;20988;-57
2022/05/19 09:19:54;;;;;;;5.42;2.30;;;;;;;21.89;29.58;100996.87;1694732;85;21432;-56
2022/05/19 09:22:26;;;;;;;7.50;3.00;;;;;;;21.62;30.05;100990.64;1694794;84;20988;-56
2022/05/19 09:24:54;;;;;;;5.60;2.90;;;;;;;21.42;30.69;100984.73;1694751;84;20987;-55
2022/05/19 09:27:23;;;;;;;7.70;3.22;;;;;;;21.40;31.33;100993.90;1694755;85;21012;-56
2022/05/19 09:29:54;;;;;;;9.03;3.00;;;;;;;21.42;31.14;100993.94;1694815;85;21015;-56
2022/05/19 09:32:29;;;;;;;7.65;3.08;;;;;;;21.40;30.26;101001.72;1694825;84;21019;-56
2022/05/19 09:35:21;;;;;;;6.87;3.02;;;;;;;21.15;30.42;100986.78;1696588;84;20972;-56
2022/05/19 09:38:13;;;;;;;7.05;2.50;;;;;;;21.08;30.96;100979.14;1691255;84;21388;-56
2022/05/19 09:40:41;;;;;;;7.00;1.95;;;;;;;21.07;31.21;100977.45;1699376;84;20995;-55
2022/05/19 09:43:20;;;;;;;5.78;2.50;;;;;;;21.09;30.75;100975.80;1699195;84;21071;-56
2022/05/19 09:46:05;;;;;;;5.30;2.45;;;;;;;21.13;30.72;100975.59;1697811;84;21043;-57
2022/05/19 09:48:37;;;;;;;10.58;3.00;;;;;;;21.14;30.60;100976.73;1672102;84;21470;-56
2022/05/19 09:51:14;;;;;;;9.33;3.83;;;;;;;21.11;30.83;100966.09;1697215;84;21019;-56
2022/05/19 09:53:55;;;;;;;6.42;2.83;;;;;;;21.10;31.28;100969.13;1697311;84;20976;-54
2022/05/19 09:56:27;;;;;;;9.20;3.17;;;;;;;21.07;31.93;100971.88;1697372;84;21458;-53
2022/05/19 09:59:07;;;;;;;4.28;2.45;;;;;;;21.06;30.71;100954.02;1697087;84;21031;-56
2022/05/19 10:01:40;;;;;;;5.70;2.65;;;;;;;21.01;31.11;100952.00;1698294;83;21030;-54
2022/05/19 10:04:26;;;;;;;6.70;2.65;;;;;;;20.92;30.94;100955.45;1700882;84;21031;-55
2022/05/19 10:06:58;;;;;;;4.62;2.25;;;;;;;20.89;30.82;100949.84;1677198;84;21072;-55
2022/05/19 10:09:33;;;;;;;6.50;2.98;;;;;;;20.89;30.26;100952.08;1692309;84;20992;-55
2022/05/19 10:12:09;;;;;;;6.40;3.15;;;;;;;20.87;30.40;100948.70;1688276;85;21416;-56
2022/05/19 10:14:38;;;;;;;10.90;3.60;;;;;;;20.90;30.71;100948.74;1664805;85;21030;-55
2022/05/19 10:17:44;;;;;;;7.95;3.47;;;;;;;20.91;30.78;100946.25;1688178;85;21459;-54
2022/05/19 10:20:22;;;;;;;6.55;2.90;;;;;;;20.88;31.66;100950.39;1688469;85;21048;-58
2022/05/19 10:23:31;;;;;;;7.28;3.22;;;;;;;20.92;31.14;100947.09;1685640;85;21028;-56
2022/05/19 10:26:23;;;;;;;9.18;3.12;;;;;;;20.91;31.08;100930.09;1688247;85;21027;-56
2022/05/19 10:32:29;;;;;;;8.13;3.02;;;;;;;20.88;30.83;100934.22;1688367;85;21011;-57
2022/05/19 10:35:12;;;;;;;7.40;2.92;;;;;;;20.88;30.68;100930.89;1694963;84;21023;-56
2022/05/19 10:38:02;;;;;;;9.83;3.20;;;;;;;20.90;30.53;100934.81;1697175;84;20992;-56
2022/05/19 10:40:55;;;;;;;6.90;2.80;;;;;;;20.93;30.47;100925.95;1697186;84;21043;-56
2022/05/19 10:44:13;;;;;;;8.10;3.08;;;;;;;20.88;30.18;100921.69;1697229;84;21027;-57
2022/05/19 10:47:21;;;;;;;9.45;3.52;;;;;;;20.84;29.16;100918.56;1587956;89;21037;-58
2022/05/19 10:50:22;;;;;;;8.68;3.02;;;;;;;20.80;29.48;100928.48;1591330;90;21033;-56
2022/05/19 10:53:17;;;;;;;8.15;2.60;;;;;;;20.84;30.24;100920.50;1640020;87;21445;-58
2022/05/19 10:56:03;;;;;;;5.67;2.30;;;;;;;20.86;30.28;100903.83;1624511;87;21017;-55
2022/05/19 10:58:47;;;;;;;5.92;2.30;;;;;;;20.85;30.27;100905.48;1628956;88;21428;-56
2022/05/19 11:01:36;;;;;;;3.87;1.98;;;;;;;20.80;30.24;100906.20;1604959;87;21016;-53
2022/05/19 11:04:28;;;;;;;9.63;3.00;;;;;;;20.80;30.47;100894.22;1638146;87;20952;-54
2022/05/19 11:07:28;;;;;;;5.33;2.33;;;;;;;20.82;30.27;100899.02;1638049;87;21007;-57
2022/05/19 11:10:03;;;;;;;5.25;2.30;;;;;;;20.83;29.77;100901.55;1638072;87;21011;-53
2022/05/19 11:13:10;;;;;;;5.50;2.33;;;;;;;20.79;28.67;100889.20;1638101;87;20999;-54
2022/05/19 11:15:52;;;;;;;7.15;2.17;;;;;;;20.80;29.04;100901.19;1638484;87;21059;-55
2022/05/19 11:18:36;;;;;;;6.03;2.02;;;;;;;20.83;28.92;100897.38;1638158;87;21550;-57
2022/05/19 11:21:12;;;;;;;7.22;2.22;;;;;;;20.79;29.14;100886.41;1638089;87;20995;-55
2022/05/19 11:24:01;;;;;;;3.47;1.50;;;;;;;20.83;29.38;100892.36;1637998;87;21011;-54
2022/05/19 11:26:38;;;;;;;4.25;1.57;;;;;;;20.89;29.08;100892.73;1615868;87;21035;-54
2022/05/19 11:29:42;;;;;;;3.37;1.40;;;;;;;20.85;28.48;100884.59;1656794;86;21028;-55
2022/05/19 11:32:32;;;;;;;5.12;1.52;;;;;;;20.75;28.91;100880.22;1656595;86;21522;-55
2022/05/19 11:35:22;;;;;;;7.42;2.10;;;;;;;20.68;28.85;100872.58;1656641;86;21008;-57
2022/05/19 11:38:01;;;;;;;3.25;1.65;;;;;;;20.64;28.90;100866.67;1656665;86;21451;-57
2022/05/19 11:40:58;;;;;;;5.05;1.80;;;;;;;20.68;29.08;100872.02;1656631;86;21183;-56
2022/05/19 11:44:12;;;;;;;8.60;2.35;;;;;;;20.77;29.16;100869.66;1656698;86;21004;-52
2022/05/19 11:46:52;;;;;;;8.43;2.08;;;;;;;20.88;29.41;100868.20;1661847;85;21282;-55
2022/05/19 11:55:14;;;;;;;7.83;2.83;;;;;;;20.98;29.02;100853.59;1663860;86;20976;-53
2022/05/19 11:58:01;;;;;;;3.70;1.65;;;;;;;20.98;29.36;100849.96;1664113;86;20996;-56
2022/05/19 12:00:42;;;;;;;3.92;1.80;;;;;;;20.99;28.92;100842.74;1586408;89;21214;-52
2022/05/19 12:03:18;;;;;;;3.83;1.50;;;;;;;21.05;28.78;100850.63;1602343;89;21425;-58
2022/05/19 12:06:13;;;;;;;4.35;1.30;;;;;;;21.09;28.75;100851.80;1586458;88;21047;-54
2022/05/19 12:09:07;;;;;;;4.50;1.60;;;;;;;21.14;28.33;100853.27;1598947;89;21080;-53
2022/05/19 12:11:45;;;;;;;3.35;1.37;;;;;;;21.08;28.21;100845.39;1593869;90;21068;-55
2022/05/19 12:14:40;;;;;;;4.58;1.50;;;;;;;21.06;28.11;100840.62;1595420;89;21065;-54
2022/05/19 12:17:31;;;;;;;3.70;1.70;;;;;;;21.00;29.37;100833.83;1603576;88;21089;-53